createdAt,value
2023-02-22T00:00:02.142Z,90.38
2023-02-22T00:15:02.354Z,90.38
2023-02-22T00:30:01.945Z,90.38
2023-02-22T00:45:02.054Z,90.38
2023-02-22T01:00:01.785Z,90.38
2023-02-22T01:15:02.305Z,90.38
2023-02-22T01:30:02.801Z,90.38
2023-02-22T01:45:01.359Z,90.38
2023-02-22T02:00:01.758Z,90.38
2023-02-22T02:15:02.245Z,90.38
2023-02-22T02:30:02.836Z,90.38
2023-02-22T02:45:02.169Z,90.38
2023-02-22T03:00:01.717Z,90.38
2023-02-22T03:15:02.126Z,90.38
2023-02-22T03:30:02.832Z,90.38
2023-02-22T03:45:02.024Z,90.38
2023-02-22T04:00:01.520Z,90.38
2023-02-22T04:15:02.266Z,90.38
2023-02-22T04:30:02.244Z,90.38
2023-02-22T04:45:02.580Z,90.38
2023-02-22T05:00:03.126Z,90.38
2023-02-22T05:15:01.511Z,90.38
2023-02-22T05:30:01.871Z,90.38
2023-02-22T05:45:02.346Z,90.38
2023-02-22T06:00:01.598Z,90.38
2023-02-22T06:15:02.116Z,90.38
2023-02-22T06:30:01.759Z,90.38
2023-02-22T06:45:02.271Z,90.38
2023-02-22T07:00:02.768Z,90.38
2023-02-22T07:15:01.917Z,90.38
2023-02-22T07:30:02.247Z,90.38
2023-02-22T07:45:01.943Z,90.38
2023-02-22T08:00:02.548Z,90.38
2023-02-22T08:15:03.107Z,90.38
2023-02-22T08:30:01.392Z,90.38
2023-02-22T08:45:01.935Z,90.38
2023-02-22T09:00:02.523Z,90.38
2023-02-22T09:15:03.005Z,90.38
2023-02-22T09:30:01.617Z,90.38
2023-02-22T09:45:01.951Z,90.38
2023-02-22T10:00:02.568Z,90.38
2023-02-22T10:15:03.061Z,90.38
2023-02-22T10:30:02.756Z,90.38
2023-02-22T10:45:01.960Z,90.38
2023-02-22T11:00:02.580Z,90.38
2023-02-22T11:15:01.477Z,90.38
2023-02-22T11:30:02.296Z,90.38
2023-02-22T11:45:02.111Z,90.38
2023-02-22T12:00:02.527Z,90.38
2023-02-22T12:15:01.965Z,35.17
2023-02-22T12:30:01.345Z,34.61
2023-02-22T12:45:02.165Z,35.74
2023-02-22T13:00:02.047Z,30.88
2023-02-22T13:15:02.071Z,25.78
2023-02-22T13:30:02.707Z,25.78
2023-02-22T13:45:01.331Z,20.12
2023-02-22T14:00:01.699Z,20.12
2023-02-22T14:15:02.005Z,20.12
2023-02-22T14:30:01.733Z,20.12
2023-02-22T14:45:02.242Z,20.12
2023-02-22T15:00:02.052Z,28.45
2023-02-22T15:15:02.177Z,39.95
2023-02-22T15:30:02.296Z,46.1
2023-02-22T15:45:01.612Z,53.22
2023-02-22T16:00:02.288Z,53.18
2023-02-22T16:15:01.346Z,62.5
2023-02-22T16:30:04.368Z,63.34
2023-02-22T16:45:02.059Z,68.2
2023-02-22T17:00:02.281Z,72.93
2023-02-22T17:15:01.666Z,77.34
2023-02-22T17:30:02.289Z,77.95
2023-02-22T17:45:01.349Z,80.3
2023-02-22T18:00:02.393Z,79.12
2023-02-22T18:15:01.630Z,81.11
2023-02-22T18:30:02.437Z,81.19
2023-02-22T18:45:01.469Z,84.43
2023-02-22T19:00:02.431Z,86.98
2023-02-22T19:15:01.873Z,88.39
2023-02-22T19:30:02.486Z,90.38
2023-02-22T19:45:01.558Z,91.59
2023-02-22T20:00:02.523Z,91.1
2023-02-22T20:15:02.152Z,90.94
2023-02-22T20:30:02.017Z,90.94
2023-02-22T20:45:02.564Z,90.94
2023-02-22T21:00:03.112Z,90.94
2023-02-22T21:15:01.472Z,90.94
2023-02-22T21:30:02.411Z,90.94
2023-02-22T21:45:05.816Z,90.94
2023-02-22T22:00:01.455Z,90.94
2023-02-22T22:15:02.143Z,90.94
2023-02-22T22:30:02.070Z,90.94
2023-02-22T22:45:02.523Z,90.94
2023-02-22T23:00:03.217Z,90.94
2023-02-22T23:15:01.971Z,90.94
2023-02-22T23:30:01.934Z,90.94
2023-02-22T23:45:02.505Z,90.94
